sensor_id;sensor_type;location;lat;lon;timestamp;P1;durP1;ratioP1;P2;durP2;ratioP2
63110;SDS011;49201;53.426;10.300;2023-04-07T00:00:16;12.40;;;8.97;;
63110;SDS011;49201;53.426;10.300;2023-04-07T00:02:42;11.50;;;8.23;;
63110;SDS011;49201;53.426;10.300;2023-04-07T00:05:07;12.00;;;9.00;;
63110;SDS011;49201;53.426;10.300;2023-04-07T00:07:33;11.50;;;8.70;;
63110;SDS011;49201;53.426;10.300;2023-04-07T00:09:58;9.63;;;8.70;;
63110;SDS011;49201;53.426;10.300;2023-04-07T00:12:24;12.67;;;8.83;;
63110;SDS011;49201;53.426;10.300;2023-04-07T00:14:50;11.87;;;8.67;;
63110;SDS011;49201;53.426;10.300;2023-04-07T00:17:15;9.63;;;8.20;;
63110;SDS011;49201;53.426;10.300;2023-04-07T00:19:40;14.43;;;9.23;;
63110;SDS011;49201;53.426;10.300;2023-04-07T00:22:06;11.97;;;8.23;;
63110;SDS011;49201;53.426;10.300;2023-04-07T00:24:31;10.60;;;8.57;;
63110;SDS011;49201;53.426;10.300;2023-04-07T00:26:57;11.53;;;8.57;;
63110;SDS011;49201;53.426;10.300;2023-04-07T00:29:22;11.27;;;8.40;;
63110;SDS011;49201;53.426;10.300;2023-04-07T00:31:48;11.33;;;8.30;;
63110;SDS011;49201;53.426;10.300;2023-04-07T00:34:13;9.03;;;7.83;;
63110;SDS011;49201;53.426;10.300;2023-04-07T00:36:38;11.50;;;8.37;;
63110;SDS011;49201;53.426;10.300;2023-04-07T00:39:04;11.63;;;8.37;;
63110;SDS011;49201;53.426;10.300;2023-04-07T00:41:29;12.80;;;8.13;;
63110;SDS011;49201;53.426;10.300;2023-04-07T00:43:55;10.20;;;7.77;;
63110;SDS011;49201;53.426;10.300;2023-04-07T00:46:21;10.90;;;8.13;;
63110;SDS011;49201;53.426;10.300;2023-04-07T00:48:47;8.87;;;7.63;;
63110;SDS011;49201;53.426;10.300;2023-04-07T00:51:13;11.63;;;9.03;;
63110;SDS011;49201;53.426;10.300;2023-04-07T00:53:39;10.83;;;7.77;;
63110;SDS011;49201;53.426;10.300;2023-04-07T00:56:05;14.50;;;8.60;;
63110;SDS011;49201;53.426;10.300;2023-04-07T00:58:31;9.97;;;7.97;;
63110;SDS011;49201;53.426;10.300;2023-04-07T01:01:07;11.13;;;8.00;;
63110;SDS011;49201;53.426;10.300;2023-04-07T01:06:06;11.70;;;8.10;;
63110;SDS011;49201;53.426;10.300;2023-04-07T01:12:20;11.20;;;8.23;;
63110;SDS011;49201;53.426;10.300;2023-04-07T01:14:32;9.37;;;7.80;;
63110;SDS011;49201;53.426;10.300;2023-04-07T01:17:14;9.87;;;7.43;;
63110;SDS011;49201;53.426;10.300;2023-04-07T01:20:03;11.40;;;7.67;;
63110;SDS011;49201;53.426;10.300;2023-04-07T01:22:34;12.03;;;7.80;;
63110;SDS011;49201;53.426;10.300;2023-04-07T01:25:05;10.90;;;7.13;;
63110;SDS011;49201;53.426;10.300;2023-04-07T01:30:19;9.80;;;7.30;;
63110;SDS011;49201;53.426;10.300;2023-04-07T01:32:49;9.37;;;7.40;;
63110;SDS011;49201;53.426;10.300;2023-04-07T01:35:17;12.17;;;7.60;;
63110;SDS011;49201;53.426;10.300;2023-04-07T01:37:44;13.37;;;7.77;;
63110;SDS011;49201;53.426;10.300;2023-04-07T01:40:12;9.27;;;7.67;;
63110;SDS011;49201;53.426;10.300;2023-04-07T01:42:39;7.43;;;6.70;;
63110;SDS011;49201;53.426;10.300;2023-04-07T01:45:07;11.77;;;7.27;;
63110;SDS011;49201;53.426;10.300;2023-04-07T01:47:37;8.03;;;6.63;;
63110;SDS011;49201;53.426;10.300;2023-04-07T01:50:03;7.90;;;7.10;;
63110;SDS011;49201;53.426;10.300;2023-04-07T01:52:31;10.00;;;7.23;;
63110;SDS011;49201;53.426;10.300;2023-04-07T01:54:58;9.50;;;6.70;;
63110;SDS011;49201;53.426;10.300;2023-04-07T01:57:24;8.83;;;7.03;;
63110;SDS011;49201;53.426;10.300;2023-04-07T01:59:55;7.63;;;6.80;;
63110;SDS011;49201;53.426;10.300;2023-04-07T02:02:23;8.53;;;6.93;;
63110;SDS011;49201;53.426;10.300;2023-04-07T02:07:18;7.30;;;6.60;;
63110;SDS011;49201;53.426;10.300;2023-04-07T02:09:50;8.40;;;6.50;;
63110;SDS011;49201;53.426;10.300;2023-04-07T02:12:16;10.27;;;7.10;;
63110;SDS011;49201;53.426;10.300;2023-04-07T02:14:53;9.50;;;6.50;;
63110;SDS011;49201;53.426;10.300;2023-04-07T02:17:22;9.03;;;6.70;;
63110;SDS011;49201;53.426;10.300;2023-04-07T02:19:50;7.33;;;6.53;;
63110;SDS011;49201;53.426;10.300;2023-04-07T02:22:17;7.27;;;6.23;;
63110;SDS011;49201;53.426;10.300;2023-04-07T02:24:44;9.33;;;6.63;;
63110;SDS011;49201;53.426;10.300;2023-04-07T02:27:09;7.63;;;6.40;;
63110;SDS011;49201;53.426;10.300;2023-04-07T02:29:34;7.20;;;5.83;;
63110;SDS011;49201;53.426;10.300;2023-04-07T02:32:00;8.60;;;5.93;;
63110;SDS011;49201;53.426;10.300;2023-04-07T02:34:27;9.67;;;6.37;;
63110;SDS011;49201;53.426;10.300;2023-04-07T02:36:53;9.80;;;6.03;;
63110;SDS011;49201;53.426;10.300;2023-04-07T02:39:18;7.60;;;6.17;;
63110;SDS011;49201;53.426;10.300;2023-04-07T02:41:44;7.33;;;6.13;;
63110;SDS011;49201;53.426;10.300;2023-04-07T02:44:09;8.73;;;6.03;;
63110;SDS011;49201;53.426;10.300;2023-04-07T02:46:35;8.10;;;6.20;;
63110;SDS011;49201;53.426;10.300;2023-04-07T02:49:00;9.47;;;6.40;;
63110;SDS011;49201;53.426;10.300;2023-04-07T02:51:26;9.23;;;5.67;;
63110;SDS011;49201;53.426;10.300;2023-04-07T02:53:51;8.77;;;6.20;;
63110;SDS011;49201;53.426;10.300;2023-04-07T02:56:17;7.97;;;5.70;;
63110;SDS011;49201;53.426;10.300;2023-04-07T02:58:42;9.10;;;5.67;;
63110;SDS011;49201;53.426;10.300;2023-04-07T03:01:08;8.73;;;5.77;;
63110;SDS011;49201;53.426;10.300;2023-04-07T03:03:34;8.00;;;6.23;;
63110;SDS011;49201;53.426;10.300;2023-04-07T03:06:08;6.77;;;5.73;;
63110;SDS011;49201;53.426;10.300;2023-04-07T03:08:40;10.43;;;6.83;;
63110;SDS011;49201;53.426;10.300;2023-04-07T03:11:06;7.47;;;6.53;;
63110;SDS011;49201;53.426;10.300;2023-04-07T03:13:32;8.70;;;6.27;;
63110;SDS011;49201;53.426;10.300;2023-04-07T03:15:57;10.40;;;6.33;;
63110;SDS011;49201;53.426;10.300;2023-04-07T03:18:24;9.70;;;6.37;;
63110;SDS011;49201;53.426;10.300;2023-04-07T03:20:57;8.47;;;6.37;;
63110;SDS011;49201;53.426;10.300;2023-04-07T03:23:25;9.37;;;6.37;;
63110;SDS011;49201;53.426;10.300;2023-04-07T03:25:53;10.63;;;6.53;;
63110;SDS011;49201;53.426;10.300;2023-04-07T03:28:19;8.70;;;6.40;;
63110;SDS011;49201;53.426;10.300;2023-04-07T03:30:44;7.80;;;5.77;;
63110;SDS011;49201;53.426;10.300;2023-04-07T03:33:10;8.63;;;6.13;;
63110;SDS011;49201;53.426;10.300;2023-04-07T03:35:36;9.20;;;6.40;;
63110;SDS011;49201;53.426;10.300;2023-04-07T03:38:01;10.63;;;6.37;;
63110;SDS011;49201;53.426;10.300;2023-04-07T03:40:27;7.33;;;6.07;;
63110;SDS011;49201;53.426;10.300;2023-04-07T03:42:53;8.53;;;6.30;;
63110;SDS011;49201;53.426;10.300;2023-04-07T03:45:19;8.13;;;6.13;;
63110;SDS011;49201;53.426;10.300;2023-04-07T03:47:47;7.90;;;5.93;;
63110;SDS011;49201;53.426;10.300;2023-04-07T03:50:14;9.20;;;6.70;;
63110;SDS011;49201;53.426;10.300;2023-04-07T03:52:50;9.07;;;5.97;;
63110;SDS011;49201;53.426;10.300;2023-04-07T03:55:28;11.03;;;6.60;;
63110;SDS011;49201;53.426;10.300;2023-04-07T03:57:58;10.50;;;6.43;;
63110;SDS011;49201;53.426;10.300;2023-04-07T04:00:28;8.57;;;6.67;;
63110;SDS011;49201;53.426;10.300;2023-04-07T04:03:07;8.00;;;6.63;;
63110;SDS011;49201;53.426;10.300;2023-04-07T04:05:37;9.30;;;6.43;;
63110;SDS011;49201;53.426;10.300;2023-04-07T04:08:02;8.87;;;6.33;;
63110;SDS011;49201;53.426;10.300;2023-04-07T04:10:30;9.67;;;6.20;;
63110;SDS011;49201;53.426;10.300;2023-04-07T04:12:56;7.50;;;6.00;;
63110;SDS011;49201;53.426;10.300;2023-04-07T04:15:25;7.97;;;6.40;;
63110;SDS011;49201;53.426;10.300;2023-04-07T04:17:51;8.07;;;6.47;;
63110;SDS011;49201;53.426;10.300;2023-04-07T04:20:17;8.80;;;6.17;;
63110;SDS011;49201;53.426;10.300;2023-04-07T04:22:47;9.70;;;6.30;;
63110;SDS011;49201;53.426;10.300;2023-04-07T04:25:12;6.73;;;5.93;;
63110;SDS011;49201;53.426;10.300;2023-04-07T04:27:42;10.63;;;7.00;;
63110;SDS011;49201;53.426;10.300;2023-04-07T04:30:15;9.23;;;6.47;;
63110;SDS011;49201;53.426;10.300;2023-04-07T04:32:48;12.70;;;6.10;;
63110;SDS011;49201;53.426;10.300;2023-04-07T04:35:15;8.00;;;6.13;;
63110;SDS011;49201;53.426;10.300;2023-04-07T04:37:51;9.20;;;6.40;;
63110;SDS011;49201;53.426;10.300;2023-04-07T04:40:17;8.83;;;6.47;;
63110;SDS011;49201;53.426;10.300;2023-04-07T04:42:46;9.37;;;6.50;;
63110;SDS011;49201;53.426;10.300;2023-04-07T04:45:12;10.07;;;6.40;;
63110;SDS011;49201;53.426;10.300;2023-04-07T04:47:42;8.87;;;7.03;;
63110;SDS011;49201;53.426;10.300;2023-04-07T04:50:10;9.00;;;7.23;;
63110;SDS011;49201;53.426;10.300;2023-04-07T04:52:37;8.07;;;5.90;;
63110;SDS011;49201;53.426;10.300;2023-04-07T04:55:05;11.03;;;5.70;;
63110;SDS011;49201;53.426;10.300;2023-04-07T04:57:31;8.13;;;6.03;;
63110;SDS011;49201;53.426;10.300;2023-04-07T04:59:59;8.10;;;5.57;;
63110;SDS011;49201;53.426;10.300;2023-04-07T05:02:25;8.77;;;6.00;;
63110;SDS011;49201;53.426;10.300;2023-04-07T05:04:51;10.20;;;6.40;;
63110;SDS011;49201;53.426;10.300;2023-04-07T05:07:21;8.93;;;5.77;;
63110;SDS011;49201;53.426;10.300;2023-04-07T05:09:46;9.20;;;5.77;;
63110;SDS011;49201;53.426;10.300;2023-04-07T05:12:14;9.60;;;6.43;;
63110;SDS011;49201;53.426;10.300;2023-04-07T05:14:44;8.47;;;5.57;;
63110;SDS011;49201;53.426;10.300;2023-04-07T05:17:10;8.73;;;6.33;;
63110;SDS011;49201;53.426;10.300;2023-04-07T05:19:36;10.53;;;6.67;;
63110;SDS011;49201;53.426;10.300;2023-04-07T05:22:10;9.07;;;6.17;;
63110;SDS011;49201;53.426;10.300;2023-04-07T05:24:42;8.57;;;6.40;;
63110;SDS011;49201;53.426;10.300;2023-04-07T05:27:07;10.00;;;6.13;;
63110;SDS011;49201;53.426;10.300;2023-04-07T05:29:34;9.93;;;6.80;;
63110;SDS011;49201;53.426;10.300;2023-04-07T05:32:01;7.03;;;5.93;;
63110;SDS011;49201;53.426;10.300;2023-04-07T05:34:28;10.93;;;6.37;;
63110;SDS011;49201;53.426;10.300;2023-04-07T05:36:55;7.83;;;6.20;;
63110;SDS011;49201;53.426;10.300;2023-04-07T05:39:21;11.00;;;6.37;;
63110;SDS011;49201;53.426;10.300;2023-04-07T05:41:49;10.50;;;6.70;;
63110;SDS011;49201;53.426;10.300;2023-04-07T05:44:15;8.83;;;6.60;;
63110;SDS011;49201;53.426;10.300;2023-04-07T05:46:41;9.70;;;6.60;;
63110;SDS011;49201;53.426;10.300;2023-04-07T05:49:07;8.70;;;6.40;;
63110;SDS011;49201;53.426;10.300;2023-04-07T05:51:33;10.13;;;6.90;;
63110;SDS011;49201;53.426;10.300;2023-04-07T05:54:02;9.90;;;6.90;;
63110;SDS011;49201;53.426;10.300;2023-04-07T05:56:28;8.63;;;6.50;;
63110;SDS011;49201;53.426;10.300;2023-04-07T05:58:53;9.07;;;6.93;;
63110;SDS011;49201;53.426;10.300;2023-04-07T06:01:19;8.80;;;6.80;;
63110;SDS011;49201;53.426;10.300;2023-04-07T06:03:46;9.47;;;6.27;;
63110;SDS011;49201;53.426;10.300;2023-04-07T06:06:15;8.70;;;6.57;;
63110;SDS011;49201;53.426;10.300;2023-04-07T06:08:40;9.27;;;6.43;;
63110;SDS011;49201;53.426;10.300;2023-04-07T06:11:06;8.67;;;5.90;;
63110;SDS011;49201;53.426;10.300;2023-04-07T06:13:32;8.57;;;6.13;;
63110;SDS011;49201;53.426;10.300;2023-04-07T06:15:58;9.40;;;6.20;;
63110;SDS011;49201;53.426;10.300;2023-04-07T06:18:23;8.73;;;6.33;;
63110;SDS011;49201;53.426;10.300;2023-04-07T06:20:49;9.57;;;6.53;;
63110;SDS011;49201;53.426;10.300;2023-04-07T06:23:14;9.50;;;6.87;;
63110;SDS011;49201;53.426;10.300;2023-04-07T06:25:40;9.77;;;5.87;;
63110;SDS011;49201;53.426;10.300;2023-04-07T06:28:05;8.73;;;5.80;;
63110;SDS011;49201;53.426;10.300;2023-04-07T06:30:31;10.67;;;6.10;;
63110;SDS011;49201;53.426;10.300;2023-04-07T06:32:57;8.17;;;5.97;;
63110;SDS011;49201;53.426;10.300;2023-04-07T06:35:23;9.97;;;5.80;;
63110;SDS011;49201;53.426;10.300;2023-04-07T06:37:50;10.30;;;6.20;;
63110;SDS011;49201;53.426;10.300;2023-04-07T06:40:16;8.17;;;5.83;;
63110;SDS011;49201;53.426;10.300;2023-04-07T06:42:42;7.47;;;5.80;;
63110;SDS011;49201;53.426;10.300;2023-04-07T06:45:18;8.40;;;6.03;;
63110;SDS011;49201;53.426;10.300;2023-04-07T06:47:43;9.23;;;6.03;;
63110;SDS011;49201;53.426;10.300;2023-04-07T06:50:09;8.73;;;6.20;;
63110;SDS011;49201;53.426;10.300;2023-04-07T06:52:34;9.30;;;6.40;;
63110;SDS011;49201;53.426;10.300;2023-04-07T06:55:00;7.97;;;5.67;;
63110;SDS011;49201;53.426;10.300;2023-04-07T06:57:25;12.27;;;7.23;;
63110;SDS011;49201;53.426;10.300;2023-04-07T06:59:51;9.20;;;7.13;;
63110;SDS011;49201;53.426;10.300;2023-04-07T07:02:17;9.00;;;6.17;;
63110;SDS011;49201;53.426;10.300;2023-04-07T07:04:42;9.37;;;6.43;;
63110;SDS011;49201;53.426;10.300;2023-04-07T07:07:07;9.63;;;6.03;;
63110;SDS011;49201;53.426;10.300;2023-04-07T07:09:33;8.03;;;5.90;;
63110;SDS011;49201;53.426;10.300;2023-04-07T07:11:58;10.90;;;6.53;;
63110;SDS011;49201;53.426;10.300;2023-04-07T07:14:26;9.17;;;5.90;;
63110;SDS011;49201;53.426;10.300;2023-04-07T07:16:51;9.73;;;6.90;;
63110;SDS011;49201;53.426;10.300;2023-04-07T07:19:17;11.37;;;6.20;;
63110;SDS011;49201;53.426;10.300;2023-04-07T07:21:42;11.63;;;6.93;;
63110;SDS011;49201;53.426;10.300;2023-04-07T07:24:08;7.93;;;5.87;;
63110;SDS011;49201;53.426;10.300;2023-04-07T07:26:33;8.23;;;6.43;;
63110;SDS011;49201;53.426;10.300;2023-04-07T07:28:59;8.87;;;6.57;;
63110;SDS011;49201;53.426;10.300;2023-04-07T07:31:24;9.63;;;6.37;;
63110;SDS011;49201;53.426;10.300;2023-04-07T07:33:49;8.03;;;5.67;;
63110;SDS011;49201;53.426;10.300;2023-04-07T07:36:16;7.70;;;6.47;;
63110;SDS011;49201;53.426;10.300;2023-04-07T07:38:41;11.97;;;6.47;;
63110;SDS011;49201;53.426;10.300;2023-04-07T07:41:07;11.30;;;6.53;;
63110;SDS011;49201;53.426;10.300;2023-04-07T07:43:32;11.80;;;6.10;;
63110;SDS011;49201;53.426;10.300;2023-04-07T07:45:58;8.07;;;5.87;;
63110;SDS011;49201;53.426;10.300;2023-04-07T07:48:23;8.93;;;5.97;;
63110;SDS011;49201;53.426;10.300;2023-04-07T07:50:49;9.47;;;6.27;;
63110;SDS011;49201;53.426;10.300;2023-04-07T07:53:16;7.70;;;6.33;;
63110;SDS011;49201;53.426;10.300;2023-04-07T07:55:42;11.70;;;6.97;;
63110;SDS011;49201;53.426;10.300;2023-04-07T07:58:07;8.47;;;5.90;;
63110;SDS011;49201;53.426;10.300;2023-04-07T08:00:33;11.07;;;7.23;;
63110;SDS011;49201;53.426;10.300;2023-04-07T08:02:58;10.67;;;6.13;;
63110;SDS011;49201;53.426;10.300;2023-04-07T08:05:24;8.17;;;5.87;;
63110;SDS011;49201;53.426;10.300;2023-04-07T08:07:51;8.00;;;5.63;;
63110;SDS011;49201;53.426;10.300;2023-04-07T08:10:17;8.73;;;6.10;;
63110;SDS011;49201;53.426;10.300;2023-04-07T08:12:44;8.67;;;5.90;;
63110;SDS011;49201;53.426;10.300;2023-04-07T08:15:10;8.63;;;5.90;;
63110;SDS011;49201;53.426;10.300;2023-04-07T08:17:35;7.90;;;5.43;;
63110;SDS011;49201;53.426;10.300;2023-04-07T08:20:01;8.77;;;5.50;;
63110;SDS011;49201;53.426;10.300;2023-04-07T08:22:27;9.00;;;6.17;;
63110;SDS011;49201;53.426;10.300;2023-04-07T08:24:53;9.20;;;5.67;;
63110;SDS011;49201;53.426;10.300;2023-04-07T08:27:18;7.57;;;5.40;;
63110;SDS011;49201;53.426;10.300;2023-04-07T08:29:45;8.70;;;5.90;;
63110;SDS011;49201;53.426;10.300;2023-04-07T08:32:22;9.90;;;6.57;;
63110;SDS011;49201;53.426;10.300;2023-04-07T08:34:47;9.67;;;5.87;;
63110;SDS011;49201;53.426;10.300;2023-04-07T08:37:13;9.83;;;6.70;;
63110;SDS011;49201;53.426;10.300;2023-04-07T08:39:38;6.80;;;5.40;;
63110;SDS011;49201;53.426;10.300;2023-04-07T08:42:03;8.57;;;5.80;;
63110;SDS011;49201;53.426;10.300;2023-04-07T08:44:31;7.20;;;5.63;;
63110;SDS011;49201;53.426;10.300;2023-04-07T08:46:57;9.47;;;5.70;;
63110;SDS011;49201;53.426;10.300;2023-04-07T08:49:26;11.47;;;6.50;;
63110;SDS011;49201;53.426;10.300;2023-04-07T08:51:53;7.73;;;5.57;;
63110;SDS011;49201;53.426;10.300;2023-04-07T08:54:20;7.87;;;5.40;;
63110;SDS011;49201;53.426;10.300;2023-04-07T08:56:48;8.97;;;6.60;;
63110;SDS011;49201;53.426;10.300;2023-04-07T08:59:14;8.10;;;5.07;;
63110;SDS011;49201;53.426;10.300;2023-04-07T09:01:42;7.67;;;5.43;;
63110;SDS011;49201;53.426;10.300;2023-04-07T09:04:09;8.93;;;5.77;;
63110;SDS011;49201;53.426;10.300;2023-04-07T09:06:35;7.87;;;5.50;;
63110;SDS011;49201;53.426;10.300;2023-04-07T09:09:01;7.47;;;5.30;;
63110;SDS011;49201;53.426;10.300;2023-04-07T09:11:33;7.80;;;5.80;;
63110;SDS011;49201;53.426;10.300;2023-04-07T09:14:00;9.70;;;5.57;;
63110;SDS011;49201;53.426;10.300;2023-04-07T09:16:27;8.13;;;5.60;;
63110;SDS011;49201;53.426;10.300;2023-04-07T09:18:53;7.73;;;5.63;;
63110;SDS011;49201;53.426;10.300;2023-04-07T09:21:18;6.93;;;5.67;;
63110;SDS011;49201;53.426;10.300;2023-04-07T09:23:44;8.00;;;6.10;;
63110;SDS011;49201;53.426;10.300;2023-04-07T09:28:57;8.70;;;5.27;;
63110;SDS011;49201;53.426;10.300;2023-04-07T09:31:45;6.67;;;5.43;;
63110;SDS011;49201;53.426;10.300;2023-04-07T09:34:32;7.33;;;5.40;;
63110;SDS011;49201;53.426;10.300;2023-04-07T09:36:59;6.67;;;5.67;;
63110;SDS011;49201;53.426;10.300;2023-04-07T09:39:25;7.13;;;4.87;;
63110;SDS011;49201;53.426;10.300;2023-04-07T09:41:51;5.97;;;5.00;;
63110;SDS011;49201;53.426;10.300;2023-04-07T09:44:17;6.33;;;5.10;;
63110;SDS011;49201;53.426;10.300;2023-04-07T09:46:53;7.37;;;4.83;;
63110;SDS011;49201;53.426;10.300;2023-04-07T09:49:21;8.00;;;4.83;;
63110;SDS011;49201;53.426;10.300;2023-04-07T09:51:52;6.07;;;4.63;;
63110;SDS011;49201;53.426;10.300;2023-04-07T09:54:32;10.70;;;5.60;;
63110;SDS011;49201;53.426;10.300;2023-04-07T09:57:00;7.67;;;5.17;;
63110;SDS011;49201;53.426;10.300;2023-04-07T09:59:27;7.43;;;5.30;;
63110;SDS011;49201;53.426;10.300;2023-04-07T10:01:54;7.97;;;5.20;;
63110;SDS011;49201;53.426;10.300;2023-04-07T10:04:20;7.30;;;5.07;;
63110;SDS011;49201;53.426;10.300;2023-04-07T10:06:46;9.73;;;5.93;;
63110;SDS011;49201;53.426;10.300;2023-04-07T10:09:12;5.87;;;5.27;;
63110;SDS011;49201;53.426;10.300;2023-04-07T10:11:41;6.13;;;5.33;;
63110;SDS011;49201;53.426;10.300;2023-04-07T10:14:08;6.73;;;5.03;;
63110;SDS011;49201;53.426;10.300;2023-04-07T10:16:35;6.47;;;5.10;;
63110;SDS011;49201;53.426;10.300;2023-04-07T10:19:02;7.43;;;5.03;;
63110;SDS011;49201;53.426;10.300;2023-04-07T10:21:30;5.57;;;4.67;;
63110;SDS011;49201;53.426;10.300;2023-04-07T10:23:59;6.47;;;5.40;;
63110;SDS011;49201;53.426;10.300;2023-04-07T10:26:50;8.53;;;5.77;;
63110;SDS011;49201;53.426;10.300;2023-04-07T10:29:19;7.47;;;5.93;;
63110;SDS011;49201;53.426;10.300;2023-04-07T10:31:46;7.43;;;4.87;;
63110;SDS011;49201;53.426;10.300;2023-04-07T10:34:12;7.60;;;5.30;;
63110;SDS011;49201;53.426;10.300;2023-04-07T10:37:23;6.63;;;4.77;;
63110;SDS011;49201;53.426;10.300;2023-04-07T10:39:33;6.23;;;4.70;;
63110;SDS011;49201;53.426;10.300;2023-04-07T10:41:59;7.37;;;5.27;;
63110;SDS011;49201;53.426;10.300;2023-04-07T10:47:03;6.63;;;5.00;;
63110;SDS011;49201;53.426;10.300;2023-04-07T10:49:31;7.43;;;5.27;;
63110;SDS011;49201;53.426;10.300;2023-04-07T10:54:35;6.63;;;4.90;;
63110;SDS011;49201;53.426;10.300;2023-04-07T10:59:26;7.73;;;5.30;;
63110;SDS011;49201;53.426;10.300;2023-04-07T11:04:36;5.73;;;4.97;;
63110;SDS011;49201;53.426;10.300;2023-04-07T11:07:03;6.10;;;4.87;;
63110;SDS011;49201;53.426;10.300;2023-04-07T11:09:28;6.80;;;5.13;;
63110;SDS011;49201;53.426;10.300;2023-04-07T11:11:53;6.30;;;5.00;;
63110;SDS011;49201;53.426;10.300;2023-04-07T11:14:29;6.37;;;5.60;;
63110;SDS011;49201;53.426;10.300;2023-04-07T11:16:57;5.57;;;4.63;;
63110;SDS011;49201;53.426;10.300;2023-04-07T11:19:24;5.33;;;4.50;;
63110;SDS011;49201;53.426;10.300;2023-04-07T11:21:49;5.70;;;4.47;;
63110;SDS011;49201;53.426;10.300;2023-04-07T11:24:33;5.07;;;4.27;;
63110;SDS011;49201;53.426;10.300;2023-04-07T11:27:02;7.77;;;4.67;;
63110;SDS011;49201;53.426;10.300;2023-04-07T11:29:31;5.70;;;4.70;;
63110;SDS011;49201;53.426;10.300;2023-04-07T11:31:57;5.97;;;4.27;;
63110;SDS011;49201;53.426;10.300;2023-04-07T11:34:30;5.27;;;4.53;;
63110;SDS011;49201;53.426;10.300;2023-04-07T11:36:56;5.47;;;4.53;;
63110;SDS011;49201;53.426;10.300;2023-04-07T11:39:27;6.57;;;4.37;;
63110;SDS011;49201;53.426;10.300;2023-04-07T11:41:55;6.03;;;4.30;;
63110;SDS011;49201;53.426;10.300;2023-04-07T11:44:21;5.43;;;4.03;;
63110;SDS011;49201;53.426;10.300;2023-04-07T11:49:21;5.93;;;4.40;;
63110;SDS011;49201;53.426;10.300;2023-04-07T11:51:56;4.87;;;3.93;;
63110;SDS011;49201;53.426;10.300;2023-04-07T11:54:42;6.90;;;4.40;;
63110;SDS011;49201;53.426;10.300;2023-04-07T11:57:08;8.20;;;4.30;;
63110;SDS011;49201;53.426;10.300;2023-04-07T11:59:36;5.77;;;3.70;;
63110;SDS011;49201;53.426;10.300;2023-04-07T12:02:02;5.03;;;3.73;;
63110;SDS011;49201;53.426;10.300;2023-04-07T12:04:28;5.03;;;3.93;;
63110;SDS011;49201;53.426;10.300;2023-04-07T12:06:53;4.80;;;3.73;;
63110;SDS011;49201;53.426;10.300;2023-04-07T12:11:51;5.67;;;3.70;;
63110;SDS011;49201;53.426;10.300;2023-04-07T12:14:17;4.90;;;3.90;;
63110;SDS011;49201;53.426;10.300;2023-04-07T12:16:43;5.97;;;3.83;;
63110;SDS011;49201;53.426;10.300;2023-04-07T12:19:09;4.20;;;3.13;;
63110;SDS011;49201;53.426;10.300;2023-04-07T12:21:34;6.83;;;3.23;;
63110;SDS011;49201;53.426;10.300;2023-04-07T12:24:00;5.97;;;3.50;;
63110;SDS011;49201;53.426;10.300;2023-04-07T12:26:26;5.13;;;3.57;;
63110;SDS011;49201;53.426;10.300;2023-04-07T12:28:51;3.73;;;3.30;;
63110;SDS011;49201;53.426;10.300;2023-04-07T12:31:17;4.70;;;3.43;;
63110;SDS011;49201;53.426;10.300;2023-04-07T12:33:42;3.23;;;2.90;;
63110;SDS011;49201;53.426;10.300;2023-04-07T12:36:08;3.87;;;2.87;;
63110;SDS011;49201;53.426;10.300;2023-04-07T12:38:33;5.60;;;3.00;;
63110;SDS011;49201;53.426;10.300;2023-04-07T12:40:58;4.00;;;2.80;;
63110;SDS011;49201;53.426;10.300;2023-04-07T12:43:30;4.77;;;2.90;;
63110;SDS011;49201;53.426;10.300;2023-04-07T12:45:55;2.87;;;2.33;;
63110;SDS011;49201;53.426;10.300;2023-04-07T12:48:21;3.00;;;2.53;;
63110;SDS011;49201;53.426;10.300;2023-04-07T12:50:47;4.57;;;2.50;;
63110;SDS011;49201;53.426;10.300;2023-04-07T12:53:13;4.10;;;2.77;;
63110;SDS011;49201;53.426;10.300;2023-04-07T12:55:39;3.83;;;2.70;;
63110;SDS011;49201;53.426;10.300;2023-04-07T12:58:04;4.13;;;2.50;;
63110;SDS011;49201;53.426;10.300;2023-04-07T13:00:32;3.07;;;2.10;;
63110;SDS011;49201;53.426;10.300;2023-04-07T13:02:57;3.07;;;1.97;;
63110;SDS011;49201;53.426;10.300;2023-04-07T13:05:22;2.27;;;1.90;;
63110;SDS011;49201;53.426;10.300;2023-04-07T13:07:48;1.63;;;1.50;;
63110;SDS011;49201;53.426;10.300;2023-04-07T13:10:13;3.50;;;1.33;;
63110;SDS011;49201;53.426;10.300;2023-04-07T13:12:39;3.17;;;1.40;;
63110;SDS011;49201;53.426;10.300;2023-04-07T13:15:05;1.47;;;1.33;;
63110;SDS011;49201;53.426;10.300;2023-04-07T13:17:31;1.50;;;1.20;;
63110;SDS011;49201;53.426;10.300;2023-04-07T13:19:57;1.40;;;1.30;;
63110;SDS011;49201;53.426;10.300;2023-04-07T13:22:22;1.20;;;1.10;;
63110;SDS011;49201;53.426;10.300;2023-04-07T13:24:48;1.33;;;1.23;;
63110;SDS011;49201;53.426;10.300;2023-04-07T13:27:13;1.63;;;1.13;;
63110;SDS011;49201;53.426;10.300;2023-04-07T13:29:39;1.67;;;1.13;;
63110;SDS011;49201;53.426;10.300;2023-04-07T13:32:05;2.70;;;1.57;;
63110;SDS011;49201;53.426;10.300;2023-04-07T13:34:32;3.23;;;2.40;;
63110;SDS011;49201;53.426;10.300;2023-04-07T13:37:00;1.60;;;1.50;;
63110;SDS011;49201;53.426;10.300;2023-04-07T13:39:26;2.07;;;1.37;;
63110;SDS011;49201;53.426;10.300;2023-04-07T13:41:52;1.87;;;1.37;;
63110;SDS011;49201;53.426;10.300;2023-04-07T13:44:17;2.60;;;1.40;;
63110;SDS011;49201;53.426;10.300;2023-04-07T13:46:43;1.47;;;1.37;;
63110;SDS011;49201;53.426;10.300;2023-04-07T13:49:08;1.73;;;1.30;;
63110;SDS011;49201;53.426;10.300;2023-04-07T13:51:33;1.20;;;1.10;;
63110;SDS011;49201;53.426;10.300;2023-04-07T13:53:59;3.00;;;1.20;;
63110;SDS011;49201;53.426;10.300;2023-04-07T13:56:24;1.80;;;1.47;;
63110;SDS011;49201;53.426;10.300;2023-04-07T13:58:50;1.50;;;1.30;;
63110;SDS011;49201;53.426;10.300;2023-04-07T14:01:16;1.73;;;1.40;;
63110;SDS011;49201;53.426;10.300;2023-04-07T14:03:41;1.80;;;1.27;;
63110;SDS011;49201;53.426;10.300;2023-04-07T14:06:07;1.67;;;1.30;;
63110;SDS011;49201;53.426;10.300;2023-04-07T14:08:32;1.30;;;0.93;;
63110;SDS011;49201;53.426;10.300;2023-04-07T14:10:58;2.40;;;1.97;;
63110;SDS011;49201;53.426;10.300;2023-04-07T14:13:23;1.40;;;1.30;;
63110;SDS011;49201;53.426;10.300;2023-04-07T14:15:49;1.37;;;1.20;;
63110;SDS011;49201;53.426;10.300;2023-04-07T14:18:14;1.90;;;1.10;;
63110;SDS011;49201;53.426;10.300;2023-04-07T14:20:41;1.90;;;1.57;;
63110;SDS011;49201;53.426;10.300;2023-04-07T14:23:07;1.63;;;1.50;;
63110;SDS011;49201;53.426;10.300;2023-04-07T14:25:32;3.70;;;1.60;;
63110;SDS011;49201;53.426;10.300;2023-04-07T14:27:58;3.03;;;1.60;;
63110;SDS011;49201;53.426;10.300;2023-04-07T14:30:23;1.50;;;1.40;;
63110;SDS011;49201;53.426;10.300;2023-04-07T14:32:48;3.20;;;2.10;;
63110;SDS011;49201;53.426;10.300;2023-04-07T14:35:14;3.13;;;2.63;;
63110;SDS011;49201;53.426;10.300;2023-04-07T14:37:39;3.07;;;2.50;;
63110;SDS011;49201;53.426;10.300;2023-04-07T14:40:05;2.73;;;2.17;;
63110;SDS011;49201;53.426;10.300;2023-04-07T14:42:32;2.37;;;2.17;;
63110;SDS011;49201;53.426;10.300;2023-04-07T14:45:00;2.70;;;2.50;;
63110;SDS011;49201;53.426;10.300;2023-04-07T14:47:26;3.17;;;2.47;;
63110;SDS011;49201;53.426;10.300;2023-04-07T14:49:51;4.93;;;2.70;;
63110;SDS011;49201;53.426;10.300;2023-04-07T14:52:17;3.03;;;2.70;;
63110;SDS011;49201;53.426;10.300;2023-04-07T14:54:43;2.83;;;2.20;;
63110;SDS011;49201;53.426;10.300;2023-04-07T14:57:09;3.60;;;2.50;;
63110;SDS011;49201;53.426;10.300;2023-04-07T14:59:35;4.60;;;2.50;;
63110;SDS011;49201;53.426;10.300;2023-04-07T15:02:01;3.27;;;2.47;;